createdAt,value
2022-09-28T00:00:59.824Z,99385.97
2022-09-28T00:03:28.006Z,99399.31
2022-09-28T00:06:01.273Z,99389.63
2022-09-28T00:08:27.623Z,99395.31
2022-09-28T00:10:58.013Z,99391.00
2022-09-28T00:13:24.653Z,99396.66
2022-09-28T00:16:01.278Z,99400.16
2022-09-28T00:18:28.412Z,99404.84
2022-09-28T00:21:12.847Z,99399.69
2022-09-28T00:23:58.866Z,99397.53
2022-09-28T00:26:26.477Z,99393.53
2022-09-28T00:28:59.078Z,99393.53
2022-09-28T00:31:26.923Z,99392.03
2022-09-28T00:33:57.264Z,99387.88
2022-09-28T00:36:28.201Z,99390.53
2022-09-28T00:38:58.808Z,99384.59
2022-09-28T00:41:27.605Z,99382.78
2022-09-28T00:44:26.004Z,99379.78
2022-09-28T00:46:58.157Z,99385.59
2022-09-28T00:49:43.850Z,99373.50
2022-09-28T00:52:14.719Z,99377.50
2022-09-28T00:54:43.238Z,99377.31
2022-09-28T00:57:09.692Z,99370.50
2022-09-28T00:59:36.133Z,99374.00
2022-09-28T01:02:02.763Z,99373.50
2022-09-28T01:04:30.937Z,99363.06
2022-09-28T01:06:59.129Z,99354.25
2022-09-28T01:09:27.611Z,99369.91
2022-09-28T01:11:55.141Z,99362.41
2022-09-28T01:14:25.566Z,99354.28
2022-09-28T01:17:08.623Z,99365.28
2022-09-28T01:20:05.876Z,99364.13
2022-09-28T01:22:46.838Z,99359.50
2022-09-28T01:25:13.176Z,99354.00
2022-09-28T01:27:44.754Z,99352.84
2022-09-28T01:30:15.998Z,99359.53
2022-09-28T01:32:57.321Z,99364.03
2022-09-28T01:35:27.678Z,99354.22
2022-09-28T01:38:02.529Z,99346.75
2022-09-28T01:40:32.269Z,99354.91
2022-09-28T01:43:04.143Z,99359.56
2022-09-28T01:45:37.033Z,99342.09
2022-09-28T01:48:06.319Z,99352.06
2022-09-28T01:50:38.246Z,99352.41
2022-09-28T01:53:13.179Z,99354.22
2022-09-28T01:55:47.901Z,99341.25
2022-09-28T01:58:51.753Z,99344.91
2022-09-28T02:01:24.939Z,99349.94
2022-09-28T02:03:59.024Z,99345.94
2022-09-28T02:06:31.909Z,99346.09
2022-09-28T02:09:06.125Z,99336.28
2022-09-28T02:11:37.182Z,99340.25
2022-09-28T02:14:09.726Z,99336.78
2022-09-28T02:16:47.989Z,99328.63
2022-09-28T02:19:14.399Z,99328.78
2022-09-28T02:21:52.885Z,99323.47
2022-09-28T02:24:26.987Z,99330.63
2022-09-28T02:26:58.983Z,99319.50
2022-09-28T02:29:25.833Z,99324.50
2022-09-28T02:31:52.718Z,99331.47
2022-09-28T02:34:19.233Z,99329.63
2022-09-28T02:36:47.013Z,99322.66
2022-09-28T02:39:15.186Z,99325.81
2022-09-28T02:42:05.839Z,99329.81
2022-09-28T02:44:57.664Z,99332.78
2022-09-28T02:47:29.715Z,99320.47
2022-09-28T02:50:12.966Z,99320.81
2022-09-28T02:52:48.948Z,99331.47
2022-09-28T02:55:37.120Z,99323.66
2022-09-28T02:58:27.587Z,99319.00
2022-09-28T03:01:40.009Z,99327.50
2022-09-28T03:04:15.995Z,99328.16
2022-09-28T03:07:04.295Z,99327.16
2022-09-28T03:09:56.343Z,99319.34
2022-09-28T03:12:24.574Z,99320.34
2022-09-28T03:15:12.304Z,99320.16
2022-09-28T03:17:38.683Z,99323.00
2022-09-28T03:20:05.710Z,99315.53
2022-09-28T03:22:32.146Z,99315.34
2022-09-28T03:24:58.495Z,99319.19
2022-09-28T03:27:24.892Z,99285.94
2022-09-28T03:29:51.218Z,99315.34
2022-09-28T03:32:17.557Z,99319.00
2022-09-28T03:34:43.939Z,99319.34
2022-09-28T03:37:10.507Z,99315.00
2022-09-28T03:39:36.954Z,99305.72
2022-09-28T03:42:03.484Z,99312.19
2022-09-28T03:44:29.822Z,99311.53
2022-09-28T03:46:56.534Z,99301.91
2022-09-28T03:49:22.891Z,99307.22
2022-09-28T03:51:49.239Z,99312.19
2022-09-28T03:54:15.562Z,99309.72
2022-09-28T03:56:41.904Z,99308.56
2022-09-28T03:59:08.272Z,99304.91
2022-09-28T04:01:34.754Z,99306.19
2022-09-28T04:04:01.383Z,99303.88
2022-09-28T04:06:27.979Z,99309.72
2022-09-28T04:08:54.576Z,99276.97
2022-09-28T04:11:20.999Z,99287.94
2022-09-28T04:13:50.498Z,99304.88
2022-09-28T04:16:18.429Z,99301.06
2022-09-28T04:18:44.956Z,99299.91
2022-09-28T04:21:13.102Z,99304.69
2022-09-28T04:23:40.048Z,99305.19
2022-09-28T04:26:16.514Z,99310.34
2022-09-28T04:29:06.305Z,99309.03
2022-09-28T04:31:45.918Z,99314.66
2022-09-28T04:34:14.882Z,99311.81
2022-09-28T04:36:41.326Z,99315.16
2022-09-28T04:39:07.662Z,99316.81
2022-09-28T04:41:34.324Z,99327.44
2022-09-28T04:44:00.861Z,99316.81
2022-09-28T04:46:27.263Z,99324.63
2022-09-28T04:48:53.636Z,99317.31
2022-09-28T04:51:20.131Z,99315.66
2022-09-28T04:53:46.819Z,99312.66
2022-09-28T04:56:15.221Z,99311.31
2022-09-28T04:58:41.689Z,99256.19
2022-09-28T05:01:11.143Z,99315.63
2022-09-28T05:03:37.920Z,99307.16
2022-09-28T05:06:05.182Z,99310.97
2022-09-28T05:08:31.572Z,99316.13
2022-09-28T05:11:03.806Z,99312.63
2022-09-28T05:13:31.506Z,99317.13
2022-09-28T05:16:03.011Z,99313.63
2022-09-28T05:18:31.546Z,99316.28
2022-09-28T05:20:58.281Z,99315.44
2022-09-28T05:23:24.654Z,99309.84
2022-09-28T05:25:51.066Z,99320.78
2022-09-28T05:28:26.036Z,99326.09
2022-09-28T05:30:52.833Z,99316.28
2022-09-28T05:33:19.212Z,99314.47
2022-09-28T05:35:48.735Z,99312.78
2022-09-28T05:38:17.455Z,99316.28
2022-09-28T05:40:43.841Z,99308.31
2022-09-28T05:43:10.597Z,99306.63
2022-09-28T05:45:37.062Z,99298.81
2022-09-28T05:48:03.671Z,99309.97
2022-09-28T05:50:30.229Z,99308.97
2022-09-28T05:53:09.915Z,99310.47
2022-09-28T05:55:37.367Z,99320.28
2022-09-28T05:58:06.469Z,99317.44
2022-09-28T06:00:33.769Z,99318.78
2022-09-28T06:03:06.684Z,99321.06
2022-09-28T06:05:36.221Z,99320.06
2022-09-28T06:08:05.171Z,99320.72
2022-09-28T06:10:32.495Z,99317.06
2022-09-28T06:12:59.433Z,99321.22
2022-09-28T06:15:28.143Z,99324.41
2022-09-28T06:18:02.394Z,99326.72
2022-09-28T06:20:31.420Z,99310.41
2022-09-28T06:22:58.081Z,99328.69
2022-09-28T06:25:25.833Z,99324.69
2022-09-28T06:28:01.204Z,99337.78
2022-09-28T06:30:29.854Z,99327.44
2022-09-28T06:32:57.994Z,99330.44
2022-09-28T06:35:26.039Z,99332.22
2022-09-28T06:37:53.615Z,99337.69
2022-09-28T06:40:21.466Z,99343.31
2022-09-28T06:43:14.894Z,99346.63
2022-09-28T06:45:42.932Z,99349.75
2022-09-28T06:48:10.642Z,99349.06
2022-09-28T06:50:39.766Z,99321.81
2022-09-28T06:53:09.579Z,99348.69
2022-09-28T06:55:38.955Z,99359.50
2022-09-28T06:58:07.892Z,99359.97
2022-09-28T07:00:36.578Z,99357.47
2022-09-28T07:03:05.141Z,99359.63
2022-09-28T07:05:34.956Z,99365.59
2022-09-28T07:08:02.020Z,99346.63
2022-09-28T07:10:30.199Z,99351.91
2022-09-28T07:12:58.143Z,99360.22
2022-09-28T07:15:25.435Z,99363.72
2022-09-28T07:18:03.238Z,99349.72
2022-09-28T07:20:31.590Z,99363.81
2022-09-28T07:23:11.696Z,99367.75
2022-09-28T07:25:47.707Z,99371.19
2022-09-28T07:28:14.361Z,99377.81
2022-09-28T07:30:42.229Z,99370.56
2022-09-28T07:33:12.512Z,99371.72
2022-09-28T07:35:38.831Z,99371.00
2022-09-28T07:38:06.603Z,99378.94
2022-09-28T07:40:53.101Z,99379.00
2022-09-28T07:43:20.823Z,99375.28
2022-09-28T07:45:49.332Z,99379.16
2022-09-28T07:48:16.982Z,99381.13
2022-09-28T07:50:48.164Z,99348.06
2022-09-28T07:53:14.546Z,99383.81
2022-09-28T07:55:40.927Z,99383.72
2022-09-28T07:58:07.338Z,99386.97
2022-09-28T08:00:34.359Z,99395.88
2022-09-28T08:03:03.728Z,99402.22
2022-09-28T08:05:35.815Z,99395.56
2022-09-28T08:08:02.765Z,99400.47
2022-09-28T08:10:29.276Z,99395.34
2022-09-28T08:12:59.247Z,99399.59
2022-09-28T08:15:29.517Z,99404.63
2022-09-28T08:17:59.087Z,99393.38
2022-09-28T08:21:06.654Z,99405.41
2022-09-28T08:23:33.088Z,99412.75
2022-09-28T08:25:59.505Z,99406.56
2022-09-28T08:28:26.232Z,99418.34
2022-09-28T08:30:52.676Z,99419.00
2022-09-28T08:33:21.349Z,99422.69
2022-09-28T08:35:48.314Z,99426.84
2022-09-28T08:38:15.249Z,99399.50
2022-09-28T08:40:57.957Z,99431.41
2022-09-28T08:43:48.319Z,99427.97
2022-09-28T08:46:17.214Z,99427.19
2022-09-28T08:49:41.903Z,99427.13
2022-09-28T08:52:23.508Z,99431.53
2022-09-28T08:55:02.225Z,99428.84
2022-09-28T08:57:42.264Z,99428.88
2022-09-28T09:00:17.499Z,99429.97
2022-09-28T09:02:46.919Z,99433.09
2022-09-28T09:05:19.054Z,99437.91
2022-09-28T09:08:03.518Z,99427.22
2022-09-28T09:10:30.015Z,99433.47
2022-09-28T09:13:23.533Z,99442.81
2022-09-28T09:16:19.448Z,99441.66
2022-09-28T09:18:54.460Z,99444.16
2022-09-28T09:21:42.191Z,99444.03
2022-09-28T09:24:29.473Z,99436.38
2022-09-28T09:27:33.793Z,99436.63
2022-09-28T09:30:11.406Z,99450.75
2022-09-28T09:33:05.097Z,99446.94
2022-09-28T09:35:55.605Z,99449.88
2022-09-28T09:38:40.156Z,99428.22
2022-09-28T09:41:18.633Z,99443.13
2022-09-28T09:44:10.191Z,99439.69
2022-09-28T09:46:57.604Z,99406.41
2022-09-28T09:49:46.562Z,99411.38
2022-09-28T09:52:24.204Z,99435.09
2022-09-28T09:55:05.564Z,99446.78
2022-09-28T09:57:51.150Z,99445.63
2022-09-28T10:00:18.415Z,99444.63
2022-09-28T10:02:48.257Z,99454.38
2022-09-28T10:05:24.041Z,99455.31
2022-09-28T10:08:08.728Z,99451.50
2022-09-28T10:10:38.713Z,99454.78
2022-09-28T10:13:05.240Z,99454.00
2022-09-28T10:15:33.641Z,99455.47
2022-09-28T10:18:06.547Z,99453.25
2022-09-28T10:20:37.674Z,99444.47
2022-09-28T10:23:07.135Z,99455.44
2022-09-28T10:25:37.891Z,99457.16
2022-09-28T10:28:06.756Z,99456.38
2022-09-28T10:30:44.076Z,99458.91
2022-09-28T10:33:34.002Z,99453.22
2022-09-28T10:36:02.083Z,99460.72
2022-09-28T10:38:30.299Z,99459.34
2022-09-28T10:41:01.907Z,99429.31
2022-09-28T10:43:39.659Z,99459.97
2022-09-28T10:46:09.461Z,99422.22
2022-09-28T10:48:51.768Z,99461.28
2022-09-28T10:51:18.264Z,99454.19
2022-09-28T10:54:00.531Z,99460.91
2022-09-28T10:56:36.087Z,99450.22
2022-09-28T10:59:22.351Z,99459.47
2022-09-28T11:01:55.789Z,99430.16
2022-09-28T11:04:26.493Z,99450.31
2022-09-28T11:06:56.450Z,99454.25
2022-09-28T11:09:34.795Z,99463.50
2022-09-28T11:12:06.145Z,99458.75
2022-09-28T11:17:38.691Z,99408.88
2022-09-28T11:20:24.792Z,99458.25
2022-09-28T11:23:15.659Z,99461.09
2022-09-28T11:25:42.708Z,99412.22
2022-09-28T11:28:22.132Z,99463.75
2022-09-28T11:30:52.896Z,99427.31
2022-09-28T11:33:34.791Z,99434.78
2022-09-28T11:36:07.678Z,99457.63
2022-09-28T11:38:40.125Z,99461.38
2022-09-28T11:41:27.862Z,99468.78
2022-09-28T11:44:36.214Z,99469.06
2022-09-28T11:47:24.710Z,99465.72
2022-09-28T11:49:57.401Z,99464.25
2022-09-28T11:52:38.751Z,99467.56
2022-09-28T11:55:31.246Z,99466.31
2022-09-28T11:58:08.784Z,99471.81
2022-09-28T12:00:42.310Z,99475.69
2022-09-28T12:03:16.237Z,99476.19
2022-09-28T12:05:52.035Z,99467.41
2022-09-28T12:08:28.006Z,99477.75
2022-09-28T12:11:17.788Z,99474.72
2022-09-28T12:13:48.204Z,99476.44
2022-09-28T12:16:53.129Z,99460.47
2022-09-28T12:19:37.990Z,99474.72
2022-09-28T12:22:16.068Z,99477.59
2022-09-28T12:24:46.076Z,99478.09
2022-09-28T12:27:31.315Z,99484.44
2022-09-28T12:30:20.928Z,99476.47
2022-09-28T12:32:55.846Z,99477.41
2022-09-28T12:35:31.465Z,99474.19
2022-09-28T12:38:28.436Z,99476.44
2022-09-28T12:41:13.031Z,99481.28
2022-09-28T12:43:45.426Z,99484.69
2022-09-28T12:46:53.842Z,99483.28
2022-09-28T12:50:36.576Z,99491.16
2022-09-28T12:53:03.071Z,99497.41
2022-09-28T12:56:08.455Z,99488.31
2022-09-28T12:58:42.593Z,99495.41
2022-09-28T13:01:14.798Z,99488.53
2022-09-28T13:04:02.615Z,99482.75
2022-09-28T13:06:39.122Z,99478.19
2022-09-28T13:09:23.881Z,99491.38
2022-09-28T13:11:55.506Z,99487.84
2022-09-28T13:14:54.972Z,99491.88
2022-09-28T13:17:39.682Z,99474.69
2022-09-28T13:20:27.475Z,99484.47
2022-09-28T13:23:21.301Z,99486.47
2022-09-28T13:25:54.669Z,99482.56
2022-09-28T13:28:26.168Z,99483.53
2022-09-28T13:30:55.249Z,99479.66
2022-09-28T13:33:37.277Z,99481.00
2022-09-28T13:36:36.547Z,99472.31
2022-09-28T13:39:04.277Z,99477.09
2022-09-28T13:41:37.754Z,99480.19
2022-09-28T13:44:13.904Z,99484.31
2022-09-28T13:47:02.254Z,99470.44
2022-09-28T13:50:02.527Z,99492.94
2022-09-28T13:52:34.865Z,99489.75
2022-09-28T13:55:23.191Z,99494.34
2022-09-28T13:58:06.604Z,99492.09
2022-09-28T14:00:47.472Z,99484.56
2022-09-28T14:03:27.577Z,99488.81
2022-09-28T14:06:12.517Z,99492.28
2022-09-28T14:08:44.414Z,99496.44
2022-09-28T14:11:34.184Z,99497.75
2022-09-28T14:14:13.870Z,99493.03
2022-09-28T14:16:42.106Z,99498.09
2022-09-28T14:19:10.639Z,99490.56
2022-09-28T14:22:05.010Z,99505.41
2022-09-28T14:24:40.093Z,99475.25
2022-09-28T14:27:06.367Z,99502.59
2022-09-28T14:29:36.460Z,99502.69
2022-09-28T14:32:08.473Z,99498.59
2022-09-28T14:34:43.699Z,99504.69
2022-09-28T14:37:43.439Z,99497.41
2022-09-28T14:40:39.072Z,99506.28
2022-09-28T14:43:26.739Z,99488.56
2022-09-28T14:46:10.831Z,99504.38
2022-09-28T14:49:03.667Z,99505.06
2022-09-28T14:51:30.166Z,99509.22
2022-09-28T14:54:01.135Z,99517.81
2022-09-28T14:56:38.955Z,99511.59
2022-09-28T14:59:06.493Z,99510.84
2022-09-28T15:01:36.159Z,99506.09
2022-09-28T15:04:04.966Z,99516.78
2022-09-28T15:06:48.447Z,99504.28
2022-09-28T15:09:28.666Z,99514.03
2022-09-28T15:12:02.099Z,99512.94
2022-09-28T15:14:55.035Z,99513.53
2022-09-28T15:17:24.732Z,99501.53
2022-09-28T15:20:03.590Z,99521.78
2022-09-28T15:22:30.310Z,99515.41
2022-09-28T15:25:02.487Z,99511.50
2022-09-28T15:27:36.955Z,99501.81
2022-09-28T15:30:22.905Z,99518.34
2022-09-28T15:32:49.882Z,99520.06
2022-09-28T15:35:21.981Z,99524.03
2022-09-28T15:37:52.620Z,99526.50
2022-09-28T15:40:29.430Z,99531.69
2022-09-28T15:42:59.213Z,99524.47
2022-09-28T15:45:30.705Z,99503.44
2022-09-28T15:48:26.053Z,99534.44
2022-09-28T15:50:58.651Z,99540.41
2022-09-28T15:53:25.404Z,99542.28
2022-09-28T15:55:51.883Z,99533.47
2022-09-28T15:58:24.233Z,99536.94
2022-09-28T16:01:12.097Z,99537.25
2022-09-28T16:03:41.797Z,99535.06
2022-09-28T16:06:09.864Z,99552.63
2022-09-28T16:08:36.158Z,99545.25
2022-09-28T16:11:10.801Z,99539.50
2022-09-28T16:13:54.202Z,99548.25
2022-09-28T16:16:26.310Z,99548.50
2022-09-28T16:18:55.496Z,99549.34
2022-09-28T16:21:45.322Z,99544.56
2022-09-28T16:24:28.213Z,99520.09
2022-09-28T16:27:03.435Z,99551.47
2022-09-28T16:29:39.962Z,99552.84
2022-09-28T16:32:25.002Z,99562.84
2022-09-28T16:35:11.638Z,99567.31
2022-09-28T16:37:42.596Z,99520.53
2022-09-28T16:40:10.179Z,99557.44
2022-09-28T16:42:37.592Z,99562.44
2022-09-28T16:45:05.278Z,99561.88
2022-09-28T16:47:34.049Z,99559.63
2022-09-28T16:50:02.343Z,99566.91
2022-09-28T16:52:47.443Z,99566.66
2022-09-28T16:55:38.752Z,99549.44
2022-09-28T16:58:04.655Z,99564.59
2022-09-28T17:00:31.786Z,99569.31
2022-09-28T17:02:58.495Z,99571.81
2022-09-28T17:05:25.652Z,99558.06
2022-09-28T17:08:01.609Z,99573.47
2022-09-28T17:10:56.133Z,99573.44
2022-09-28T17:13:31.366Z,99581.59
2022-09-28T17:15:58.397Z,99572.22
2022-09-28T17:18:25.229Z,99573.91
2022-09-28T17:20:55.000Z,99582.53
2022-09-28T17:23:21.766Z,99583.13
2022-09-28T17:25:48.372Z,99592.56
2022-09-28T17:28:20.598Z,99589.28
2022-09-28T17:30:47.547Z,99588.81
2022-09-28T17:33:14.665Z,99589.88
2022-09-28T17:35:43.027Z,99590.09
2022-09-28T17:38:12.142Z,99597.13
2022-09-28T17:40:38.955Z,99594.69
2022-09-28T17:43:06.074Z,99598.69
2022-09-28T17:45:38.957Z,99596.84
2022-09-28T17:48:09.043Z,99594.22
2022-09-28T17:50:35.823Z,99564.59
2022-09-28T17:53:08.355Z,99597.22
2022-09-28T17:55:36.664Z,99600.72
2022-09-28T17:58:23.343Z,99608.56
2022-09-28T18:00:51.463Z,99602.91
2022-09-28T18:03:20.839Z,99610.56
2022-09-28T18:05:49.945Z,99608.91
2022-09-28T18:08:21.106Z,99614.06
2022-09-28T18:10:47.606Z,99607.41
2022-09-28T18:13:14.661Z,99613.56
2022-09-28T18:15:41.554Z,99610.91
2022-09-28T18:18:09.713Z,99612.94
2022-09-28T18:20:36.767Z,99614.94
2022-09-28T18:23:03.598Z,99619.59
2022-09-28T18:25:30.002Z,99628.09
2022-09-28T18:27:57.501Z,99616.94
2022-09-28T18:30:24.743Z,99620.13
2022-09-28T18:32:51.160Z,99621.41
2022-09-28T18:35:22.611Z,99622.09
2022-09-28T18:37:49.818Z,99624.25
2022-09-28T18:40:16.267Z,99628.09
2022-09-28T18:42:42.731Z,99628.91
2022-09-28T18:45:14.860Z,99633.91
2022-09-28T18:47:41.247Z,99623.94
2022-09-28T18:50:08.082Z,99635.75
2022-09-28T18:52:39.067Z,99638.91
2022-09-28T18:55:06.520Z,99635.41
2022-09-28T18:57:33.827Z,99642.91
2022-09-28T19:00:01.778Z,99648.91
2022-09-28T19:02:28.242Z,99640.53
2022-09-28T19:04:54.635Z,99649.19
2022-09-28T19:07:21.227Z,99649.69
2022-09-28T19:09:47.600Z,99650.19
2022-09-28T19:12:14.793Z,99652.47
2022-09-28T19:14:41.209Z,99630.97
2022-09-28T19:17:07.636Z,99658.13
2022-09-28T19:19:34.044Z,99659.75
2022-09-28T19:22:00.464Z,99651.44
2022-09-28T19:24:27.067Z,99653.06
2022-09-28T19:26:53.545Z,99667.34
2022-09-28T19:29:20.482Z,99663.69
2022-09-28T19:31:47.353Z,99663.53
2022-09-28T19:34:14.425Z,99672.66
2022-09-28T19:36:41.556Z,99667.66
2022-09-28T19:39:07.918Z,99679.44
2022-09-28T19:41:44.382Z,99678.75
2022-09-28T19:44:21.029Z,99675.41
2022-09-28T19:46:47.478Z,99679.25
2022-09-28T19:49:19.555Z,99679.25
2022-09-28T19:52:19.013Z,99675.38
2022-09-28T19:54:38.010Z,99687.03
2022-09-28T19:57:08.562Z,99677.59
2022-09-28T19:59:36.939Z,99684.22
2022-09-28T20:02:04.919Z,99678.91
2022-09-28T20:04:31.324Z,99682.25
2022-09-28T20:06:57.744Z,99690.13
2022-09-28T20:09:24.143Z,99696.63
2022-09-28T20:11:51.817Z,99684.66
2022-09-28T20:14:23.438Z,99684.19
2022-09-28T20:16:52.294Z,99691.53
2022-09-28T20:19:21.407Z,99699.03
2022-09-28T20:21:48.414Z,99687.91
2022-09-28T20:24:16.743Z,99696.22
2022-09-28T20:26:44.347Z,99694.09
2022-09-28T20:29:10.687Z,99701.59
2022-09-28T20:31:37.822Z,99703.94
2022-09-28T20:34:05.297Z,99678.44
2022-09-28T20:36:32.069Z,99697.13
2022-09-28T20:39:01.766Z,99700.81
2022-09-28T20:41:34.686Z,99707.50
2022-09-28T20:44:05.019Z,99709.97
2022-09-28T20:46:32.171Z,99707.97
2022-09-28T20:48:59.929Z,99706.81
2022-09-28T20:51:26.623Z,99710.31
2022-09-28T20:53:55.585Z,99706.81
2022-09-28T20:56:24.711Z,99714.81
2022-09-28T20:58:51.706Z,99711.31
2022-09-28T21:01:25.983Z,99709.63
2022-09-28T21:03:54.783Z,99722.97
2022-09-28T21:06:23.761Z,99711.63
2022-09-28T21:08:50.396Z,99702.28
2022-09-28T21:11:19.457Z,99719.28
2022-09-28T21:13:46.024Z,99717.47
2022-09-28T21:16:14.965Z,99714.09
2022-09-28T21:18:42.018Z,99718.09
2022-09-28T21:21:12.455Z,99714.75
2022-09-28T21:23:39.180Z,99731.91
2022-09-28T21:26:10.616Z,99719.91
2022-09-28T21:28:38.180Z,99717.06
2022-09-28T21:31:06.893Z,99696.69
2022-09-28T21:33:33.291Z,99723.19
2022-09-28T21:36:04.618Z,99717.81
2022-09-28T21:38:31.228Z,99721.63
2022-09-28T21:40:59.056Z,99726.47
2022-09-28T21:43:27.307Z,99733.78
2022-09-28T21:45:54.979Z,99731.56
2022-09-28T21:48:22.933Z,99736.38
2022-09-28T21:51:00.549Z,99721.69
2022-09-28T21:53:29.534Z,99735.97
2022-09-28T21:55:59.404Z,99738.13
2022-09-28T21:58:28.715Z,99732.44
2022-09-28T22:01:14.686Z,99730.41
2022-09-28T22:03:42.463Z,99733.38
2022-09-28T22:06:08.942Z,99735.34
2022-09-28T22:08:36.308Z,99734.84
2022-09-28T22:11:11.651Z,99741.81
2022-09-28T22:13:43.226Z,99727.66
2022-09-28T22:16:11.262Z,99741.81
2022-09-28T22:18:37.972Z,99744.31
2022-09-28T22:21:13.571Z,99741.50
2022-09-28T22:23:40.502Z,99741.66
2022-09-28T22:26:11.017Z,99720.28
2022-09-28T22:28:38.317Z,99748.31
2022-09-28T22:31:04.892Z,99746.63
2022-09-28T22:33:31.528Z,99738.28
2022-09-28T22:35:57.881Z,99747.09
2022-09-28T22:38:24.782Z,99739.91
2022-09-28T22:40:54.420Z,99751.53
2022-09-28T22:43:23.389Z,99749.03
2022-09-28T22:45:50.204Z,99736.28
2022-09-28T22:48:16.594Z,99751.44
2022-09-28T22:50:50.211Z,99754.09
2022-09-28T22:53:16.871Z,99752.44
2022-09-28T22:55:43.381Z,99760.72
2022-09-28T22:58:09.891Z,99758.06
2022-09-28T23:00:36.478Z,99768.69
2022-09-28T23:03:02.989Z,99732.63
2022-09-28T23:05:29.419Z,99762.72
2022-09-28T23:07:55.794Z,99768.19
2022-09-28T23:10:22.194Z,99771.69
2022-09-28T23:12:48.664Z,99772.97
2022-09-28T23:15:15.331Z,99764.72
2022-09-28T23:17:41.692Z,99740.50
2022-09-28T23:20:08.482Z,99769.19
2022-09-28T23:22:34.860Z,99769.06
2022-09-28T23:25:01.346Z,99766.88
2022-09-28T23:27:27.704Z,99751.81
2022-09-28T23:29:54.358Z,99758.44
2022-09-28T23:32:20.690Z,99759.94
2022-09-28T23:34:47.033Z,99760.56
2022-09-28T23:37:13.373Z,99767.03
2022-09-28T23:39:39.799Z,99765.09
2022-09-28T23:42:06.216Z,99763.91
2022-09-28T23:44:33.176Z,99775.13
2022-09-28T23:46:59.664Z,99769.56
2022-09-28T23:49:26.076Z,99770.03
2022-09-28T23:51:52.401Z,99765.16
2022-09-28T23:54:18.783Z,99739.19
2022-09-28T23:56:45.182Z,99774.16
2022-09-28T23:59:11.653Z,99772.09
